createdAt,value
2018-02-22T00:00:49.073Z,22.20
2018-02-22T00:03:16.641Z,23.73
2018-02-22T00:05:44.298Z,17.12
2018-02-22T00:08:11.863Z,21.62
2018-02-22T00:10:39.453Z,21.35
2018-02-22T00:13:08.711Z,21.85
2018-02-22T00:15:36.322Z,15.75
2018-02-22T00:18:03.882Z,17.67
2018-02-22T00:20:32.211Z,19.92
2018-02-22T00:22:59.822Z,17.73
2018-02-22T00:25:28.150Z,18.10
2018-02-22T00:27:55.714Z,21.17
2018-02-22T00:30:23.285Z,18.37
2018-02-22T00:32:50.830Z,21.35
2018-02-22T00:35:18.389Z,19.75
2018-02-22T00:37:45.939Z,20.70
2018-02-22T00:40:13.574Z,19.90
2018-02-22T00:42:41.160Z,17.98
2018-02-22T00:45:08.813Z,19.33
2018-02-22T00:47:36.387Z,22.95
2018-02-22T00:50:04.721Z,19.87
2018-02-22T00:52:33.094Z,18.77
2018-02-22T00:55:00.663Z,18.55
2018-02-22T00:57:29.052Z,17.77
2018-02-22T00:59:56.625Z,19.67
2018-02-22T01:02:24.187Z,19.00
2018-02-22T01:04:51.750Z,19.53
2018-02-22T01:07:19.355Z,20.08
2018-02-22T01:09:46.938Z,21.25
2018-02-22T01:12:14.531Z,21.25
2018-02-22T01:14:42.199Z,18.30
2018-02-22T01:17:09.781Z,18.87
2018-02-22T01:19:37.341Z,18.52
2018-02-22T01:22:04.963Z,20.27
2018-02-22T01:24:33.348Z,19.60
2018-02-22T01:27:00.986Z,17.00
2018-02-22T01:29:28.586Z,20.70
2018-02-22T01:31:56.166Z,16.40
2018-02-22T01:34:23.737Z,18.35
2018-02-22T01:36:51.337Z,18.12
2018-02-22T01:39:19.680Z,17.00
2018-02-22T01:41:47.245Z,19.20
2018-02-22T01:44:14.821Z,19.25
2018-02-22T01:46:42.406Z,21.05
2018-02-22T01:49:09.994Z,22.15
2018-02-22T01:51:37.597Z,21.12
2018-02-22T01:54:05.157Z,20.35
2018-02-22T01:56:32.712Z,21.33
2018-02-22T01:59:00.323Z,24.08
2018-02-22T02:01:27.882Z,17.45
2018-02-22T02:03:55.441Z,23.52
2018-02-22T02:06:23.006Z,20.00
2018-02-22T02:08:50.572Z,20.75
2018-02-22T02:11:18.121Z,17.75
2018-02-22T02:13:45.704Z,22.55
2018-02-22T02:16:13.272Z,24.00
2018-02-22T02:18:40.837Z,19.92
2018-02-22T02:21:08.399Z,23.25
2018-02-22T02:23:35.954Z,17.80
2018-02-22T02:26:03.511Z,24.15
2018-02-22T02:28:31.860Z,21.87
2018-02-22T02:30:59.427Z,21.30
2018-02-22T02:33:26.988Z,20.10
2018-02-22T02:35:54.554Z,23.17
2018-02-22T02:38:22.114Z,23.80
2018-02-22T02:40:49.669Z,19.12
2018-02-22T02:43:17.257Z,20.90
2018-02-22T02:45:44.848Z,25.45
2018-02-22T02:48:12.432Z,27.85
2018-02-22T02:50:39.993Z,22.40
2018-02-22T02:53:08.370Z,22.62
2018-02-22T02:55:36.702Z,21.50
2018-02-22T02:58:04.261Z,19.40
2018-02-22T03:00:31.847Z,21.92
2018-02-22T03:02:59.402Z,19.35
2018-02-22T03:05:26.976Z,17.90
2018-02-22T03:07:55.305Z,23.58
2018-02-22T03:10:22.869Z,19.12
2018-02-22T03:12:50.456Z,19.98
2018-02-22T03:15:18.024Z,22.30
2018-02-22T03:17:45.589Z,21.60
2018-02-22T03:20:13.137Z,21.92
2018-02-22T03:22:40.718Z,20.73
2018-02-22T03:25:08.278Z,22.60
2018-02-22T03:27:36.609Z,24.55
2018-02-22T03:30:04.200Z,20.90
2018-02-22T03:32:31.757Z,21.67
2018-02-22T03:34:59.299Z,21.58
2018-02-22T03:37:26.926Z,23.02
2018-02-22T03:39:54.538Z,22.70
2018-02-22T03:42:22.114Z,28.08
2018-02-22T03:44:49.678Z,21.10
2018-02-22T03:47:18.018Z,21.15
2018-02-22T03:49:45.596Z,27.25
2018-02-22T03:52:13.214Z,24.63
2018-02-22T03:54:40.780Z,28.10
2018-02-22T03:57:08.376Z,21.48
2018-02-22T03:59:35.954Z,18.73
2018-02-22T04:02:03.548Z,22.90
2018-02-22T04:04:31.099Z,28.10
2018-02-22T04:06:58.689Z,18.45
2018-02-22T04:09:26.315Z,20.62
2018-02-22T04:11:54.682Z,21.30
2018-02-22T04:14:23.038Z,21.80
2018-02-22T04:16:50.607Z,21.35
2018-02-22T04:19:18.168Z,22.08
2018-02-22T04:21:45.801Z,22.85
2018-02-22T04:24:13.425Z,23.80
2018-02-22T04:26:40.988Z,25.65
2018-02-22T04:29:08.568Z,27.45
2018-02-22T04:31:36.182Z,23.85
2018-02-22T04:34:03.770Z,22.67
2018-02-22T04:36:31.359Z,21.98
2018-02-22T04:38:58.943Z,23.15
2018-02-22T04:41:26.505Z,23.12
2018-02-22T04:43:54.056Z,22.85
2018-02-22T04:46:21.621Z,28.85
2018-02-22T04:48:49.180Z,19.60
2018-02-22T04:51:16.748Z,25.45
2018-02-22T04:53:44.318Z,24.20
2018-02-22T04:56:11.896Z,28.75
2018-02-22T04:58:39.469Z,28.27
2018-02-22T05:01:07.802Z,25.70
2018-02-22T05:03:36.189Z,28.15
2018-02-22T05:06:03.755Z,23.80
2018-02-22T05:08:31.327Z,27.90
2018-02-22T05:10:59.712Z,23.48
2018-02-22T05:13:27.267Z,26.58
2018-02-22T05:15:54.784Z,25.35
2018-02-22T05:18:22.294Z,27.10
2018-02-22T05:20:49.820Z,28.00
2018-02-22T05:23:17.479Z,22.50
2018-02-22T05:25:45.008Z,27.37
2018-02-22T05:28:12.518Z,30.00
2018-02-22T05:30:47.619Z,28.38
2018-02-22T05:33:15.173Z,23.75
2018-02-22T05:35:42.694Z,29.10
2018-02-22T05:38:11.035Z,25.17
2018-02-22T05:40:38.539Z,31.75
2018-02-22T05:43:06.840Z,27.65
2018-02-22T05:45:34.366Z,27.62
2018-02-22T05:48:02.677Z,33.00
2018-02-22T05:50:30.190Z,31.73
2018-02-22T05:52:57.711Z,27.50
2018-02-22T05:55:25.244Z,26.87
2018-02-22T05:57:52.760Z,32.38
2018-02-22T06:00:20.294Z,30.95
2018-02-22T06:02:47.864Z,26.48
2018-02-22T06:05:15.390Z,29.33
2018-02-22T06:07:42.949Z,31.37
2018-02-22T06:10:10.463Z,25.70
2018-02-22T06:12:38.790Z,25.52
2018-02-22T06:15:06.356Z,30.88
2018-02-22T06:17:33.916Z,33.08
2018-02-22T06:20:01.489Z,29.33
2018-02-22T06:22:30.512Z,28.52
2018-02-22T06:24:58.037Z,26.42
2018-02-22T06:27:25.689Z,26.00
2018-02-22T06:29:53.209Z,26.15
2018-02-22T06:32:21.486Z,29.27
2018-02-22T06:34:49.786Z,27.13
2018-02-22T06:37:18.078Z,26.08
2018-02-22T06:39:45.608Z,27.30
2018-02-22T06:42:13.160Z,31.02
2018-02-22T06:44:41.495Z,26.50
2018-02-22T06:47:09.024Z,31.25
2018-02-22T06:49:36.609Z,29.58
2018-02-22T06:52:04.157Z,30.12
2018-02-22T06:54:31.679Z,33.47
2018-02-22T06:56:59.990Z,37.17
2018-02-22T06:59:27.511Z,34.20
2018-02-22T07:01:55.086Z,39.70
2018-02-22T07:04:23.385Z,33.35
2018-02-22T07:06:50.899Z,34.17
2018-02-22T07:09:18.417Z,37.78
2018-02-22T07:11:45.929Z,39.00
2018-02-22T07:14:14.236Z,38.60
2018-02-22T07:16:42.027Z,37.22
2018-02-22T07:19:09.685Z,40.50
2018-02-22T07:21:37.218Z,45.35
2018-02-22T07:24:05.482Z,39.78
2018-02-22T07:26:33.751Z,31.58
2018-02-22T07:29:02.062Z,36.53
2018-02-22T07:31:29.573Z,36.70
2018-02-22T07:33:57.193Z,35.20
2018-02-22T07:36:24.708Z,33.85
2018-02-22T07:38:53.323Z,35.45
2018-02-22T07:41:20.877Z,35.03
2018-02-22T07:43:48.486Z,35.80
2018-02-22T07:46:17.463Z,31.33
2018-02-22T07:48:44.984Z,38.15
2018-02-22T07:51:13.282Z,30.33
2018-02-22T07:53:40.780Z,33.03
2018-02-22T07:56:08.363Z,34.63
2018-02-22T07:58:36.647Z,31.00
2018-02-22T08:01:04.914Z,29.70
2018-02-22T08:03:32.427Z,28.62
2018-02-22T08:05:59.928Z,25.20
2018-02-22T08:08:28.311Z,29.15
2018-02-22T08:10:55.818Z,32.00
2018-02-22T08:13:23.348Z,27.13
2018-02-22T08:15:50.944Z,33.97
2018-02-22T08:18:18.452Z,31.05
2018-02-22T08:20:45.993Z,34.65
2018-02-22T08:23:13.511Z,39.25
2018-02-22T08:25:41.081Z,34.85
2018-02-22T08:28:08.625Z,30.48
2018-02-22T08:30:36.191Z,30.02
2018-02-22T08:33:03.748Z,32.47
2018-02-22T08:35:31.253Z,27.00
2018-02-22T08:37:58.795Z,28.38
2018-02-22T08:40:26.348Z,29.27
2018-02-22T08:42:53.899Z,32.55
2018-02-22T08:45:21.570Z,35.63
2018-02-22T08:47:49.111Z,31.17
2018-02-22T08:50:16.629Z,30.17
2018-02-22T08:52:44.129Z,36.85
2018-02-22T08:55:11.658Z,31.20
2018-02-22T08:57:39.959Z,31.20
2018-02-22T09:00:07.523Z,33.63
2018-02-22T09:02:35.194Z,35.55
2018-02-22T09:05:02.721Z,24.60
2018-02-22T09:07:31.007Z,30.50
2018-02-22T09:09:59.309Z,23.58
2018-02-22T09:12:26.841Z,32.70
2018-02-22T09:14:55.116Z,27.15
2018-02-22T09:17:23.290Z,21.25
2018-02-22T09:19:50.803Z,27.37
2018-02-22T09:22:18.315Z,31.60
2018-02-22T09:24:45.830Z,21.20
2018-02-22T09:27:13.346Z,23.75
2018-02-22T09:29:40.873Z,22.15
2018-02-22T09:32:08.384Z,20.45
2018-02-22T09:34:35.961Z,20.00
2018-02-22T09:37:03.502Z,21.48
2018-02-22T09:39:31.020Z,24.40
2018-02-22T09:41:59.303Z,25.40
2018-02-22T09:44:26.835Z,19.27
2018-02-22T09:46:54.368Z,23.85
2018-02-22T09:49:21.929Z,20.73
2018-02-22T09:51:49.425Z,24.85
2018-02-22T09:54:17.042Z,20.77
2018-02-22T09:56:44.542Z,17.00
2018-02-22T09:59:12.067Z,19.95
2018-02-22T10:01:39.603Z,17.92
2018-02-22T10:04:07.148Z,21.02
2018-02-22T10:06:34.834Z,15.20
2018-02-22T10:09:02.355Z,13.45
2018-02-22T10:11:30.645Z,11.65
2018-02-22T10:13:59.054Z,13.40
2018-02-22T10:16:26.582Z,16.98
2018-02-22T10:18:54.928Z,10.73
2018-02-22T10:21:22.482Z,14.27
2018-02-22T10:23:49.994Z,15.63
2018-02-22T10:26:17.532Z,15.18
2018-02-22T10:28:45.095Z,10.02
2018-02-22T10:31:13.384Z,13.07
2018-02-22T10:33:40.898Z,12.43
2018-02-22T10:36:08.416Z,19.27
2018-02-22T10:38:35.946Z,14.15
2018-02-22T10:41:04.257Z,11.27
2018-02-22T10:43:31.931Z,11.48
2018-02-22T10:45:59.437Z,12.32
2018-02-22T10:48:26.971Z,12.40
2018-02-22T10:50:54.615Z,11.95
2018-02-22T10:53:22.134Z,10.95
2018-02-22T10:55:50.438Z,15.50
2018-02-22T10:58:17.963Z,12.70
2018-02-22T11:00:51.067Z,13.13
2018-02-22T11:03:18.589Z,14.25
2018-02-22T11:05:46.126Z,11.77
2018-02-22T11:08:14.479Z,11.40
2018-02-22T11:10:42.036Z,16.58
2018-02-22T11:13:09.551Z,11.50
2018-02-22T11:15:37.179Z,18.17
2018-02-22T11:18:04.696Z,12.85
2018-02-22T11:20:33.022Z,14.25
2018-02-22T11:23:00.597Z,13.85
2018-02-22T11:25:28.118Z,12.57
2018-02-22T11:27:55.660Z,13.05
2018-02-22T11:30:23.195Z,12.23
2018-02-22T11:32:51.499Z,16.12
2018-02-22T11:35:19.035Z,13.38
2018-02-22T11:37:46.578Z,14.82
2018-02-22T11:40:14.127Z,13.98
2018-02-22T11:42:41.679Z,16.12
2018-02-22T11:45:09.258Z,17.05
2018-02-22T11:47:36.780Z,14.02
2018-02-22T11:50:04.299Z,18.70
2018-02-22T11:52:32.623Z,13.73
2018-02-22T11:55:00.160Z,13.55
2018-02-22T11:57:28.755Z,13.02
2018-02-22T11:59:56.328Z,13.55
2018-02-22T12:02:23.951Z,11.65
2018-02-22T12:04:51.467Z,12.35
2018-02-22T12:07:18.997Z,13.55
2018-02-22T12:09:46.545Z,15.63
2018-02-22T12:12:14.120Z,16.98
2018-02-22T12:14:41.647Z,15.02
2018-02-22T12:17:09.201Z,14.27
2018-02-22T12:19:37.633Z,17.37
2018-02-22T12:22:05.162Z,14.55
2018-02-22T12:24:32.664Z,16.33
2018-02-22T12:27:00.230Z,14.05
2018-02-22T12:29:27.950Z,14.18
2018-02-22T12:31:55.469Z,17.58
2018-02-22T12:34:23.010Z,16.12
2018-02-22T12:36:50.560Z,14.15
2018-02-22T12:39:18.108Z,16.45
2018-02-22T12:41:45.760Z,14.52
2018-02-22T12:44:13.311Z,13.98
2018-02-22T12:46:40.876Z,14.32
2018-02-22T12:49:08.403Z,13.65
2018-02-22T12:51:36.718Z,13.40
2018-02-22T12:54:04.301Z,13.38
2018-02-22T12:56:31.822Z,14.00
2018-02-22T12:58:59.381Z,16.67
2018-02-22T13:01:26.897Z,12.80
2018-02-22T13:03:54.417Z,14.23
2018-02-22T13:06:21.981Z,21.20
2018-02-22T13:08:49.633Z,16.42
2018-02-22T13:11:17.156Z,16.67
2018-02-22T13:13:45.442Z,22.45
2018-02-22T13:16:13.035Z,15.98
2018-02-22T13:18:40.616Z,14.87
2018-02-22T13:21:08.155Z,17.08
2018-02-22T13:23:35.687Z,14.45
2018-02-22T13:26:03.954Z,13.95
2018-02-22T13:28:32.232Z,17.17
2018-02-22T13:31:00.556Z,13.20
2018-02-22T13:33:39.820Z,14.05
2018-02-22T13:36:07.340Z,12.85
2018-02-22T13:38:46.709Z,13.77
2018-02-22T13:41:14.220Z,11.93
2018-02-22T13:43:41.899Z,11.00
2018-02-22T13:46:09.432Z,13.55
2018-02-22T13:48:49.572Z,11.60
2018-02-22T13:51:17.902Z,11.25
2018-02-22T13:53:45.450Z,14.13
2018-02-22T13:56:24.955Z,13.05
2018-02-22T13:58:52.457Z,9.35
2018-02-22T14:01:31.715Z,13.30
2018-02-22T14:03:59.223Z,10.95
2018-02-22T14:06:27.526Z,12.90
2018-02-22T14:08:55.026Z,14.18
2018-02-22T14:11:22.545Z,10.90
2018-02-22T14:13:50.037Z,10.70
2018-02-22T14:16:17.552Z,11.68
2018-02-22T14:18:45.048Z,9.13
2018-02-22T14:21:12.552Z,9.00
2018-02-22T14:23:40.820Z,11.35
2018-02-22T14:26:09.080Z,10.23
2018-02-22T14:28:36.610Z,13.13
2018-02-22T14:31:04.107Z,11.93
2018-02-22T14:33:32.393Z,10.57
2018-02-22T14:36:00.699Z,10.20
2018-02-22T14:38:28.212Z,9.55
2018-02-22T14:40:55.719Z,8.68
2018-02-22T14:43:23.252Z,9.73
2018-02-22T14:45:50.769Z,10.10
2018-02-22T14:48:18.291Z,11.30
2018-02-22T14:50:45.847Z,10.50
2018-02-22T14:53:13.346Z,10.55
2018-02-22T14:55:40.905Z,12.40
2018-02-22T14:58:08.440Z,9.95
2018-02-22T15:00:36.100Z,11.38
2018-02-22T15:03:03.625Z,8.75
2018-02-22T15:05:31.919Z,9.13
2018-02-22T15:07:59.496Z,10.40
2018-02-22T15:10:26.986Z,9.15
2018-02-22T15:12:54.510Z,12.45
2018-02-22T15:15:22.010Z,8.70
2018-02-22T15:17:49.630Z,8.57
2018-02-22T15:20:17.134Z,8.32
2018-02-22T15:22:44.654Z,11.77
2018-02-22T15:25:12.151Z,17.25
2018-02-22T15:27:39.814Z,11.50
2018-02-22T15:30:07.370Z,11.85
2018-02-22T15:32:34.916Z,14.32
2018-02-22T15:35:03.270Z,9.02
2018-02-22T15:37:30.779Z,11.23
2018-02-22T15:39:58.287Z,9.20
2018-02-22T15:42:25.851Z,68.90
2018-02-22T15:44:54.116Z,11.45
2018-02-22T15:47:21.665Z,9.18
2018-02-22T15:49:49.171Z,9.95
2018-02-22T15:52:16.713Z,13.25
2018-02-22T15:54:44.249Z,17.12
2018-02-22T15:57:11.770Z,16.85
2018-02-22T15:59:39.306Z,16.67
2018-02-22T16:02:06.824Z,11.98
2018-02-22T16:04:34.368Z,14.05
2018-02-22T16:07:02.640Z,15.60
2018-02-22T16:09:30.962Z,13.85
2018-02-22T16:11:58.595Z,12.48
2018-02-22T16:14:26.904Z,15.07
2018-02-22T16:16:54.431Z,11.90
2018-02-22T16:19:21.943Z,15.15
2018-02-22T16:21:49.535Z,14.50
2018-02-22T16:24:17.063Z,15.82
2018-02-22T16:26:44.671Z,17.60
2018-02-22T16:29:12.235Z,14.27
2018-02-22T16:31:40.554Z,15.93
2018-02-22T16:34:08.090Z,15.05
2018-02-22T16:36:35.676Z,14.43
2018-02-22T16:39:03.213Z,12.55
2018-02-22T16:41:30.756Z,17.12
2018-02-22T16:43:59.023Z,14.02
2018-02-22T16:46:27.366Z,15.43
2018-02-22T16:48:54.878Z,14.60
2018-02-22T16:51:22.423Z,17.92
2018-02-22T16:53:50.698Z,20.85
2018-02-22T16:56:18.230Z,20.60
2018-02-22T16:58:45.739Z,14.80
2018-02-22T17:01:13.239Z,15.82
2018-02-22T17:03:40.756Z,14.27
2018-02-22T17:06:08.388Z,15.32
2018-02-22T17:08:36.703Z,17.12
2018-02-22T17:11:04.232Z,20.73
2018-02-22T17:13:31.756Z,13.80
2018-02-22T17:15:59.385Z,13.65
2018-02-22T17:18:27.046Z,13.90
2018-02-22T17:20:54.562Z,11.70
2018-02-22T17:23:22.909Z,12.20
2018-02-22T17:25:56.140Z,13.18
2018-02-22T17:28:29.478Z,18.62
2018-02-22T17:31:02.612Z,18.25
2018-02-22T17:33:30.224Z,14.60
2018-02-22T17:36:03.474Z,19.90
2018-02-22T17:38:36.595Z,14.55
2018-02-22T17:41:07.582Z,23.05
2018-02-22T17:43:35.076Z,21.95
2018-02-22T17:46:03.343Z,27.10
2018-02-22T17:48:30.881Z,21.50
2018-02-22T17:50:58.391Z,17.02
2018-02-22T17:53:26.009Z,16.83
2018-02-22T17:55:53.600Z,12.63
2018-02-22T17:58:21.168Z,17.02
2018-02-22T18:00:48.698Z,12.43
2018-02-22T18:03:16.216Z,15.18
2018-02-22T18:05:43.716Z,20.10
2018-02-22T18:08:11.320Z,14.55
2018-02-22T18:10:38.821Z,10.77
2018-02-22T18:13:06.390Z,13.57
2018-02-22T18:15:33.964Z,12.57
2018-02-22T18:18:01.472Z,15.90
2018-02-22T18:20:29.016Z,16.20
2018-02-22T18:22:56.528Z,12.82
2018-02-22T18:25:24.042Z,13.18
2018-02-22T18:27:51.540Z,17.55
2018-02-22T18:30:19.159Z,13.23
2018-02-22T18:32:46.672Z,15.02
2018-02-22T18:35:14.193Z,15.13
2018-02-22T18:37:47.321Z,13.27
2018-02-22T18:40:20.414Z,11.50
2018-02-22T18:42:49.718Z,14.15
2018-02-22T18:45:17.217Z,13.57
2018-02-22T18:47:44.908Z,17.05
2018-02-22T18:50:12.462Z,12.50
2018-02-22T18:52:39.973Z,11.57
2018-02-22T18:55:08.262Z,10.80
2018-02-22T18:57:35.770Z,11.52
2018-02-22T19:00:03.446Z,10.00
2018-02-22T19:02:30.979Z,17.85
2018-02-22T19:04:58.525Z,15.77
2018-02-22T19:07:26.072Z,12.50
2018-02-22T19:09:53.614Z,10.50
2018-02-22T19:12:21.128Z,10.48
2018-02-22T19:14:48.620Z,9.45
2018-02-22T19:17:16.903Z,16.30
2018-02-22T19:19:45.221Z,12.77
2018-02-22T19:22:12.944Z,10.13
2018-02-22T19:24:40.595Z,11.43
2018-02-22T19:27:09.046Z,8.20
2018-02-22T19:29:36.553Z,9.82
2018-02-22T19:32:04.875Z,10.38
2018-02-22T19:34:32.378Z,13.25
2018-02-22T19:37:00.678Z,9.70
2018-02-22T19:39:28.970Z,8.85
2018-02-22T19:41:56.480Z,8.27
2018-02-22T19:44:23.998Z,10.23
2018-02-22T19:46:51.527Z,8.40
2018-02-22T19:49:19.803Z,9.40
2018-02-22T19:51:48.066Z,10.60
2018-02-22T19:54:15.694Z,9.23
2018-02-22T19:56:43.278Z,9.25
2018-02-22T19:59:10.776Z,8.95
2018-02-22T20:01:38.311Z,11.60
2018-02-22T20:04:06.600Z,8.40
2018-02-22T20:06:34.894Z,8.45
2018-02-22T20:09:02.413Z,16.85
2018-02-22T20:11:29.927Z,9.23
2018-02-22T20:13:57.444Z,7.95
2018-02-22T20:16:25.856Z,11.20
2018-02-22T20:18:53.366Z,8.55
2018-02-22T20:21:20.912Z,8.27
2018-02-22T20:23:48.411Z,16.25
2018-02-22T20:26:16.000Z,10.68
2018-02-22T20:28:43.526Z,11.25
2018-02-22T20:31:11.216Z,9.00
2018-02-22T20:33:38.741Z,9.48
2018-02-22T20:36:07.024Z,11.90
2018-02-22T20:38:35.292Z,12.23
2018-02-22T20:41:03.607Z,11.65
2018-02-22T20:43:31.125Z,17.17
2018-02-22T20:45:58.727Z,11.20
2018-02-22T20:48:26.232Z,9.85
2018-02-22T20:50:53.744Z,10.43
2018-02-22T20:53:23.152Z,13.18
2018-02-22T20:55:50.677Z,12.25
2018-02-22T20:58:18.185Z,8.95
2018-02-22T21:00:45.711Z,10.70
2018-02-22T21:03:13.697Z,10.02
2018-02-22T21:05:41.193Z,12.57
2018-02-22T21:08:08.710Z,11.98
2018-02-22T21:10:36.309Z,10.90
2018-02-22T21:13:03.821Z,12.32
2018-02-22T21:15:31.329Z,10.93
2018-02-22T21:17:58.875Z,13.57
2018-02-22T21:20:26.395Z,13.90
2018-02-22T21:22:54.672Z,13.13
2018-02-22T21:25:22.944Z,17.27
2018-02-22T21:27:52.361Z,13.77
2018-02-22T21:30:19.879Z,13.45
2018-02-22T21:32:47.392Z,15.27
2018-02-22T21:35:15.008Z,15.52
2018-02-22T21:37:43.287Z,13.20
2018-02-22T21:40:10.853Z,16.98
2018-02-22T21:42:38.401Z,16.95
2018-02-22T21:45:05.940Z,25.17
2018-02-22T21:47:33.466Z,21.92
2018-02-22T21:50:00.973Z,13.15
2018-02-22T21:52:28.551Z,14.48
2018-02-22T21:54:56.058Z,20.35
2018-02-22T21:57:23.634Z,19.67
2018-02-22T21:59:51.141Z,19.30
2018-02-22T22:02:18.649Z,14.80
2018-02-22T22:04:46.160Z,16.30
2018-02-22T22:07:14.709Z,22.08
2018-02-22T22:09:42.231Z,16.92
2018-02-22T22:12:09.899Z,20.20
2018-02-22T22:14:37.453Z,18.02
2018-02-22T22:17:04.973Z,18.33
2018-02-22T22:19:32.474Z,19.23
2018-02-22T22:21:59.998Z,19.37
2018-02-22T22:24:28.274Z,23.35
2018-02-22T22:26:55.837Z,23.85
2018-02-22T22:29:24.143Z,22.27
2018-02-22T22:31:51.707Z,21.02
2018-02-22T22:34:19.243Z,18.67
2018-02-22T22:36:46.808Z,24.30
2018-02-22T22:39:14.329Z,25.42
2018-02-22T22:41:41.867Z,23.15
2018-02-22T22:44:09.470Z,20.52
2018-02-22T22:46:36.988Z,25.67
2018-02-22T22:49:04.500Z,25.85
2018-02-22T22:51:32.758Z,20.92
2018-02-22T22:54:01.052Z,20.83
2018-02-22T22:56:29.366Z,25.85
2018-02-22T22:58:56.867Z,23.83
2018-02-22T23:01:24.411Z,21.55
2018-02-22T23:03:51.895Z,24.87
2018-02-22T23:06:20.170Z,21.25
2018-02-22T23:08:48.466Z,16.85
2018-02-22T23:11:15.977Z,21.77
2018-02-22T23:13:43.560Z,18.45
2018-02-22T23:16:11.856Z,19.50
2018-02-22T23:18:40.131Z,13.75
2018-02-22T23:21:08.446Z,18.40
2018-02-22T23:23:35.982Z,17.62
2018-02-22T23:26:03.531Z,15.95
2018-02-22T23:28:31.821Z,20.58
2018-02-22T23:30:59.331Z,19.12
2018-02-22T23:33:26.954Z,19.52
2018-02-22T23:35:54.512Z,17.48
2018-02-22T23:38:22.037Z,20.30
2018-02-22T23:40:50.436Z,17.15
2018-02-22T23:43:17.959Z,17.35
2018-02-22T23:45:45.486Z,14.35
2018-02-22T23:48:13.034Z,22.15
2018-02-22T23:50:40.548Z,20.73
2018-02-22T23:53:08.093Z,18.80
2018-02-22T23:55:35.689Z,21.85
2018-02-22T23:58:03.188Z,18.67
